sensor_id;sensor_type;location;lat;lon;timestamp;P1;durP1;ratioP1;P2;durP2;ratioP2
3201;SDS011;34843;48.744;8.958;2022-07-10T00:00:07;10.13;;;4.70;;
3201;SDS011;34843;48.744;8.958;2022-07-10T00:02:35;5.30;;;4.80;;
3201;SDS011;34843;48.744;8.958;2022-07-10T00:05:00;11.17;;;5.27;;
3201;SDS011;34843;48.744;8.958;2022-07-10T00:07:26;5.23;;;4.33;;
3201;SDS011;34843;48.744;8.958;2022-07-10T00:09:51;5.33;;;4.83;;
3201;SDS011;34843;48.744;8.958;2022-07-10T00:12:17;6.23;;;4.43;;
3201;SDS011;34843;48.744;8.958;2022-07-10T00:14:42;6.73;;;4.30;;
3201;SDS011;34843;48.744;8.958;2022-07-10T00:17:08;6.67;;;5.10;;
3201;SDS011;34843;48.744;8.958;2022-07-10T00:19:33;6.93;;;6.30;;
3201;SDS011;34843;48.744;8.958;2022-07-10T00:21:59;4.57;;;4.20;;
3201;SDS011;34843;48.744;8.958;2022-07-10T00:24:24;4.73;;;4.30;;
3201;SDS011;34843;48.744;8.958;2022-07-10T00:26:50;8.67;;;4.60;;
3201;SDS011;34843;48.744;8.958;2022-07-10T00:29:15;6.20;;;4.57;;
3201;SDS011;34843;48.744;8.958;2022-07-10T00:31:41;6.67;;;5.23;;
3201;SDS011;34843;48.744;8.958;2022-07-10T00:34:07;5.03;;;4.53;;
3201;SDS011;34843;48.744;8.958;2022-07-10T00:36:32;5.17;;;4.67;;
3201;SDS011;34843;48.744;8.958;2022-07-10T00:38:58;4.90;;;4.50;;
3201;SDS011;34843;48.744;8.958;2022-07-10T00:41:24;5.67;;;5.00;;
3201;SDS011;34843;48.744;8.958;2022-07-10T00:43:53;4.37;;;4.07;;
3201;SDS011;34843;48.744;8.958;2022-07-10T00:46:23;5.07;;;4.63;;
3201;SDS011;34843;48.744;8.958;2022-07-10T00:48:53;6.00;;;5.40;;
3201;SDS011;34843;48.744;8.958;2022-07-10T00:51:24;5.70;;;5.03;;
3201;SDS011;34843;48.744;8.958;2022-07-10T00:53:51;8.43;;;4.63;;
3201;SDS011;34843;48.744;8.958;2022-07-10T00:56:18;5.47;;;4.10;;
3201;SDS011;34843;48.744;8.958;2022-07-10T00:58:46;5.47;;;4.97;;
3201;SDS011;34843;48.744;8.958;2022-07-10T01:01:12;5.10;;;4.20;;
3201;SDS011;34843;48.744;8.958;2022-07-10T01:03:38;5.70;;;5.13;;
3201;SDS011;34843;48.744;8.958;2022-07-10T01:06:04;7.13;;;4.93;;
3201;SDS011;34843;48.744;8.958;2022-07-10T01:08:30;6.10;;;5.50;;
3201;SDS011;34843;48.744;8.958;2022-07-10T01:10:56;7.27;;;5.23;;
3201;SDS011;34843;48.744;8.958;2022-07-10T01:13:22;5.53;;;5.00;;
3201;SDS011;34843;48.744;8.958;2022-07-10T01:15:48;5.67;;;5.17;;
3201;SDS011;34843;48.744;8.958;2022-07-10T01:18:16;6.30;;;4.27;;
3201;SDS011;34843;48.744;8.958;2022-07-10T01:20:42;8.13;;;4.57;;
3201;SDS011;34843;48.744;8.958;2022-07-10T01:23:08;7.93;;;4.93;;
3201;SDS011;34843;48.744;8.958;2022-07-10T01:25:33;5.47;;;4.80;;
3201;SDS011;34843;48.744;8.958;2022-07-10T01:27:59;5.10;;;4.50;;
3201;SDS011;34843;48.744;8.958;2022-07-10T01:30:25;5.83;;;5.23;;
3201;SDS011;34843;48.744;8.958;2022-07-10T01:32:51;4.50;;;4.13;;
3201;SDS011;34843;48.744;8.958;2022-07-10T01:35:19;6.30;;;4.70;;
3201;SDS011;34843;48.744;8.958;2022-07-10T01:37:45;5.37;;;4.87;;
3201;SDS011;34843;48.744;8.958;2022-07-10T01:40:10;7.40;;;6.27;;
3201;SDS011;34843;48.744;8.958;2022-07-10T01:42:37;9.77;;;6.07;;
3201;SDS011;34843;48.744;8.958;2022-07-10T01:45:04;7.20;;;6.50;;
3201;SDS011;34843;48.744;8.958;2022-07-10T01:47:34;5.57;;;5.00;;
3201;SDS011;34843;48.744;8.958;2022-07-10T01:50:00;5.30;;;4.60;;
3201;SDS011;34843;48.744;8.958;2022-07-10T01:52:25;5.07;;;4.57;;
3201;SDS011;34843;48.744;8.958;2022-07-10T01:54:51;5.30;;;4.37;;
3201;SDS011;34843;48.744;8.958;2022-07-10T01:57:17;6.67;;;4.57;;
3201;SDS011;34843;48.744;8.958;2022-07-10T01:59:43;7.20;;;5.43;;
3201;SDS011;34843;48.744;8.958;2022-07-10T02:02:08;11.00;;;4.97;;
3201;SDS011;34843;48.744;8.958;2022-07-10T02:04:34;6.30;;;5.70;;
3201;SDS011;34843;48.744;8.958;2022-07-10T02:07:06;5.70;;;5.20;;
3201;SDS011;34843;48.744;8.958;2022-07-10T02:09:36;5.70;;;5.20;;
3201;SDS011;34843;48.744;8.958;2022-07-10T02:12:02;6.13;;;5.10;;
3201;SDS011;34843;48.744;8.958;2022-07-10T02:14:28;8.43;;;4.80;;
3201;SDS011;34843;48.744;8.958;2022-07-10T02:16:53;6.00;;;5.40;;
3201;SDS011;34843;48.744;8.958;2022-07-10T02:19:20;8.50;;;6.03;;
3201;SDS011;34843;48.744;8.958;2022-07-10T02:21:45;13.40;;;7.37;;
3201;SDS011;34843;48.744;8.958;2022-07-10T02:24:11;8.23;;;7.30;;
3201;SDS011;34843;48.744;8.958;2022-07-10T02:26:37;10.63;;;8.90;;
3201;SDS011;34843;48.744;8.958;2022-07-10T02:29:02;11.30;;;8.67;;
3201;SDS011;34843;48.744;8.958;2022-07-10T02:31:28;8.00;;;6.90;;
3201;SDS011;34843;48.744;8.958;2022-07-10T02:33:53;16.10;;;9.00;;
3201;SDS011;34843;48.744;8.958;2022-07-10T02:36:19;11.23;;;9.20;;
3201;SDS011;34843;48.744;8.958;2022-07-10T02:38:44;9.90;;;8.70;;
3201;SDS011;34843;48.744;8.958;2022-07-10T02:41:10;14.77;;;11.63;;
3201;SDS011;34843;48.744;8.958;2022-07-10T02:43:36;12.90;;;10.40;;
3201;SDS011;34843;48.744;8.958;2022-07-10T02:46:01;14.73;;;10.43;;
3201;SDS011;34843;48.744;8.958;2022-07-10T02:48:27;16.57;;;10.67;;
3201;SDS011;34843;48.744;8.958;2022-07-10T02:50:53;18.17;;;11.10;;
3201;SDS011;34843;48.744;8.958;2022-07-10T02:53:18;18.93;;;12.57;;
3201;SDS011;34843;48.744;8.958;2022-07-10T02:55:44;16.53;;;12.57;;
3201;SDS011;34843;48.744;8.958;2022-07-10T02:58:10;15.13;;;12.10;;
3201;SDS011;34843;48.744;8.958;2022-07-10T03:00:36;15.73;;;12.63;;
3201;SDS011;34843;48.744;8.958;2022-07-10T03:03:02;17.40;;;12.30;;
3201;SDS011;34843;48.744;8.958;2022-07-10T03:05:27;16.73;;;12.33;;
3201;SDS011;34843;48.744;8.958;2022-07-10T03:07:53;16.47;;;12.90;;
3201;SDS011;34843;48.744;8.958;2022-07-10T03:10:19;19.33;;;12.80;;
3201;SDS011;34843;48.744;8.958;2022-07-10T03:12:45;17.97;;;13.93;;
3201;SDS011;34843;48.744;8.958;2022-07-10T03:15:11;16.03;;;12.43;;
3201;SDS011;34843;48.744;8.958;2022-07-10T03:17:37;18.40;;;12.90;;
3201;SDS011;34843;48.744;8.958;2022-07-10T03:20:04;14.70;;;11.30;;
3201;SDS011;34843;48.744;8.958;2022-07-10T03:22:30;15.83;;;11.50;;
3201;SDS011;34843;48.744;8.958;2022-07-10T03:24:57;16.57;;;12.47;;
3201;SDS011;34843;48.744;8.958;2022-07-10T03:27:23;14.30;;;11.60;;
3201;SDS011;34843;48.744;8.958;2022-07-10T03:29:49;16.70;;;13.13;;
3201;SDS011;34843;48.744;8.958;2022-07-10T03:32:14;17.13;;;12.80;;
3201;SDS011;34843;48.744;8.958;2022-07-10T03:34:40;19.43;;;12.50;;
3201;SDS011;34843;48.744;8.958;2022-07-10T03:37:05;14.20;;;11.77;;
3201;SDS011;34843;48.744;8.958;2022-07-10T03:39:31;17.23;;;13.27;;
3201;SDS011;34843;48.744;8.958;2022-07-10T03:41:56;18.50;;;12.10;;
3201;SDS011;34843;48.744;8.958;2022-07-10T03:44:22;16.97;;;13.50;;
3201;SDS011;34843;48.744;8.958;2022-07-10T03:46:48;15.67;;;12.03;;
3201;SDS011;34843;48.744;8.958;2022-07-10T03:49:13;14.63;;;12.23;;
3201;SDS011;34843;48.744;8.958;2022-07-10T03:51:38;16.63;;;11.80;;
3201;SDS011;34843;48.744;8.958;2022-07-10T03:54:04;14.20;;;10.90;;
3201;SDS011;34843;48.744;8.958;2022-07-10T03:56:29;12.30;;;10.17;;
3201;SDS011;34843;48.744;8.958;2022-07-10T03:59:14;14.20;;;11.37;;
3201;SDS011;34843;48.744;8.958;2022-07-10T04:01:39;14.13;;;11.43;;
3201;SDS011;34843;48.744;8.958;2022-07-10T04:04:05;14.40;;;11.63;;
3201;SDS011;34843;48.744;8.958;2022-07-10T04:06:30;19.03;;;9.83;;
3201;SDS011;34843;48.744;8.958;2022-07-10T04:08:56;15.60;;;9.70;;
3201;SDS011;34843;48.744;8.958;2022-07-10T04:11:21;14.17;;;10.37;;
3201;SDS011;34843;48.744;8.958;2022-07-10T04:13:47;14.77;;;10.13;;
3201;SDS011;34843;48.744;8.958;2022-07-10T04:16:12;14.70;;;10.67;;
3201;SDS011;34843;48.744;8.958;2022-07-10T04:18:38;10.43;;;8.83;;
3201;SDS011;34843;48.744;8.958;2022-07-10T04:21:04;11.93;;;9.53;;
3201;SDS011;34843;48.744;8.958;2022-07-10T04:23:32;9.70;;;8.47;;
3201;SDS011;34843;48.744;8.958;2022-07-10T04:25:57;11.53;;;9.40;;
3201;SDS011;34843;48.744;8.958;2022-07-10T04:28:23;13.67;;;9.00;;
3201;SDS011;34843;48.744;8.958;2022-07-10T04:30:48;10.37;;;7.33;;
3201;SDS011;34843;48.744;8.958;2022-07-10T04:33:14;8.70;;;7.73;;
3201;SDS011;34843;48.744;8.958;2022-07-10T04:35:39;8.37;;;7.03;;
3201;SDS011;34843;48.744;8.958;2022-07-10T04:38:05;7.70;;;6.90;;
3201;SDS011;34843;48.744;8.958;2022-07-10T04:40:31;9.73;;;7.30;;
3201;SDS011;34843;48.744;8.958;2022-07-10T04:42:56;6.70;;;5.93;;
3201;SDS011;34843;48.744;8.958;2022-07-10T04:45:22;11.23;;;6.90;;
3201;SDS011;34843;48.744;8.958;2022-07-10T04:47:47;7.07;;;6.37;;
3201;SDS011;34843;48.744;8.958;2022-07-10T04:50:13;6.63;;;5.50;;
3201;SDS011;34843;48.744;8.958;2022-07-10T04:52:38;8.03;;;5.43;;
3201;SDS011;34843;48.744;8.958;2022-07-10T04:55:04;8.93;;;5.37;;
3201;SDS011;34843;48.744;8.958;2022-07-10T04:57:30;8.00;;;4.60;;
3201;SDS011;34843;48.744;8.958;2022-07-10T04:59:55;6.83;;;4.13;;
3201;SDS011;34843;48.744;8.958;2022-07-10T05:02:21;5.37;;;4.23;;
3201;SDS011;34843;48.744;8.958;2022-07-10T05:04:47;6.43;;;4.10;;
3201;SDS011;34843;48.744;8.958;2022-07-10T05:07:13;6.10;;;4.60;;
3201;SDS011;34843;48.744;8.958;2022-07-10T05:09:39;5.17;;;4.63;;
3201;SDS011;34843;48.744;8.958;2022-07-10T05:12:05;5.30;;;4.80;;
3201;SDS011;34843;48.744;8.958;2022-07-10T05:14:31;6.10;;;4.83;;
3201;SDS011;34843;48.744;8.958;2022-07-10T05:16:57;6.10;;;5.33;;
3201;SDS011;34843;48.744;8.958;2022-07-10T05:19:22;6.50;;;4.60;;
3201;SDS011;34843;48.744;8.958;2022-07-10T05:21:48;5.00;;;4.50;;
3201;SDS011;34843;48.744;8.958;2022-07-10T05:24:13;6.03;;;5.53;;
3201;SDS011;34843;48.744;8.958;2022-07-10T05:26:39;9.37;;;4.47;;
3201;SDS011;34843;48.744;8.958;2022-07-10T05:29:05;5.60;;;4.17;;
3201;SDS011;34843;48.744;8.958;2022-07-10T05:31:30;3.97;;;3.60;;
3201;SDS011;34843;48.744;8.958;2022-07-10T05:33:56;3.77;;;3.47;;
3201;SDS011;34843;48.744;8.958;2022-07-10T05:36:21;3.70;;;3.40;;
3201;SDS011;34843;48.744;8.958;2022-07-10T05:38:47;4.30;;;3.67;;
3201;SDS011;34843;48.744;8.958;2022-07-10T05:41:12;4.03;;;3.17;;
3201;SDS011;34843;48.744;8.958;2022-07-10T05:43:38;2.93;;;2.73;;
3201;SDS011;34843;48.744;8.958;2022-07-10T05:46:04;3.83;;;3.30;;
3201;SDS011;34843;48.744;8.958;2022-07-10T05:48:30;4.03;;;3.03;;
3201;SDS011;34843;48.744;8.958;2022-07-10T05:50:56;7.27;;;3.10;;
3201;SDS011;34843;48.744;8.958;2022-07-10T05:53:21;4.90;;;2.77;;
3201;SDS011;34843;48.744;8.958;2022-07-10T05:55:47;2.73;;;2.10;;
3201;SDS011;34843;48.744;8.958;2022-07-10T05:58:13;4.13;;;2.87;;
3201;SDS011;34843;48.744;8.958;2022-07-10T06:00:39;6.13;;;2.63;;
3201;SDS011;34843;48.744;8.958;2022-07-10T06:03:05;2.30;;;2.10;;
3201;SDS011;34843;48.744;8.958;2022-07-10T06:05:30;3.93;;;2.50;;
3201;SDS011;34843;48.744;8.958;2022-07-10T06:07:56;6.77;;;3.07;;
3201;SDS011;34843;48.744;8.958;2022-07-10T06:10:21;3.80;;;2.83;;
3201;SDS011;34843;48.744;8.958;2022-07-10T06:12:47;2.47;;;2.27;;
3201;SDS011;34843;48.744;8.958;2022-07-10T06:15:13;3.30;;;2.20;;
3201;SDS011;34843;48.744;8.958;2022-07-10T06:17:38;3.20;;;2.20;;
3201;SDS011;34843;48.744;8.958;2022-07-10T06:20:04;4.00;;;2.17;;
3201;SDS011;34843;48.744;8.958;2022-07-10T06:22:30;4.27;;;2.87;;
3201;SDS011;34843;48.744;8.958;2022-07-10T06:24:59;3.40;;;2.70;;
3201;SDS011;34843;48.744;8.958;2022-07-10T06:27:29;12.33;;;2.37;;
3201;SDS011;34843;48.744;8.958;2022-07-10T06:29:56;4.50;;;2.93;;
3201;SDS011;34843;48.744;8.958;2022-07-10T06:32:21;3.37;;;2.43;;
3201;SDS011;34843;48.744;8.958;2022-07-10T06:34:47;2.70;;;2.50;;
3201;SDS011;34843;48.744;8.958;2022-07-10T06:37:13;3.23;;;2.50;;
3201;SDS011;34843;48.744;8.958;2022-07-10T06:39:38;2.40;;;2.30;;
3201;SDS011;34843;48.744;8.958;2022-07-10T06:42:04;5.07;;;2.50;;
3201;SDS011;34843;48.744;8.958;2022-07-10T06:44:31;3.57;;;2.50;;
3201;SDS011;34843;48.744;8.958;2022-07-10T06:46:57;2.07;;;1.67;;
3201;SDS011;34843;48.744;8.958;2022-07-10T06:49:42;3.00;;;2.30;;
3201;SDS011;34843;48.744;8.958;2022-07-10T06:52:09;1.90;;;1.57;;
3201;SDS011;34843;48.744;8.958;2022-07-10T06:54:36;2.60;;;1.83;;
3201;SDS011;34843;48.744;8.958;2022-07-10T06:57:01;1.87;;;1.77;;
3201;SDS011;34843;48.744;8.958;2022-07-10T06:59:27;1.80;;;1.37;;
3201;SDS011;34843;48.744;8.958;2022-07-10T07:01:53;2.60;;;1.50;;
3201;SDS011;34843;48.744;8.958;2022-07-10T07:04:18;4.23;;;1.60;;
3201;SDS011;34843;48.744;8.958;2022-07-10T07:06:44;2.37;;;1.87;;
3201;SDS011;34843;48.744;8.958;2022-07-10T07:09:10;1.73;;;1.63;;
3201;SDS011;34843;48.744;8.958;2022-07-10T07:11:36;3.43;;;1.50;;
3201;SDS011;34843;48.744;8.958;2022-07-10T07:14:01;2.03;;;1.80;;
3201;SDS011;34843;48.744;8.958;2022-07-10T07:16:27;6.90;;;1.80;;
3201;SDS011;34843;48.744;8.958;2022-07-10T07:19:03;11.57;;;2.03;;
3201;SDS011;34843;48.744;8.958;2022-07-10T07:21:30;2.97;;;2.73;;
3201;SDS011;34843;48.744;8.958;2022-07-10T07:24:15;2.33;;;1.77;;
3201;SDS011;34843;48.744;8.958;2022-07-10T07:26:43;2.30;;;1.67;;
3201;SDS011;34843;48.744;8.958;2022-07-10T07:29:12;1.63;;;1.20;;
3201;SDS011;34843;48.744;8.958;2022-07-10T07:31:39;1.73;;;1.63;;
3201;SDS011;34843;48.744;8.958;2022-07-10T07:34:04;1.50;;;1.40;;
3201;SDS011;34843;48.744;8.958;2022-07-10T07:36:30;3.17;;;1.33;;
3201;SDS011;34843;48.744;8.958;2022-07-10T07:38:56;2.07;;;1.53;;
3201;SDS011;34843;48.744;8.958;2022-07-10T07:41:21;1.20;;;1.10;;
3201;SDS011;34843;48.744;8.958;2022-07-10T07:43:47;3.00;;;1.07;;
3201;SDS011;34843;48.744;8.958;2022-07-10T07:46:13;3.57;;;1.23;;
3201;SDS011;34843;48.744;8.958;2022-07-10T07:48:39;2.20;;;1.33;;
3201;SDS011;34843;48.744;8.958;2022-07-10T07:51:05;5.23;;;1.17;;
3201;SDS011;34843;48.744;8.958;2022-07-10T07:53:31;2.40;;;1.13;;
3201;SDS011;34843;48.744;8.958;2022-07-10T07:55:56;1.97;;;1.70;;
3201;SDS011;34843;48.744;8.958;2022-07-10T07:58:22;1.67;;;1.20;;
3201;SDS011;34843;48.744;8.958;2022-07-10T08:00:47;2.20;;;1.57;;
3201;SDS011;34843;48.744;8.958;2022-07-10T08:03:13;2.60;;;1.30;;
3201;SDS011;34843;48.744;8.958;2022-07-10T08:05:38;4.23;;;1.50;;
3201;SDS011;34843;48.744;8.958;2022-07-10T08:08:04;3.63;;;1.63;;
3201;SDS011;34843;48.744;8.958;2022-07-10T08:10:32;2.20;;;1.33;;
3201;SDS011;34843;48.744;8.958;2022-07-10T08:12:58;2.83;;;1.50;;
3201;SDS011;34843;48.744;8.958;2022-07-10T08:15:23;2.70;;;1.40;;
3201;SDS011;34843;48.744;8.958;2022-07-10T08:17:50;4.00;;;1.47;;
3201;SDS011;34843;48.744;8.958;2022-07-10T08:20:16;3.03;;;1.40;;
3201;SDS011;34843;48.744;8.958;2022-07-10T08:22:42;1.20;;;1.10;;
3201;SDS011;34843;48.744;8.958;2022-07-10T08:25:08;4.70;;;1.87;;
3201;SDS011;34843;48.744;8.958;2022-07-10T08:27:35;5.67;;;1.57;;
3201;SDS011;34843;48.744;8.958;2022-07-10T08:30:00;2.53;;;1.40;;
3201;SDS011;34843;48.744;8.958;2022-07-10T08:32:26;1.43;;;1.33;;
3201;SDS011;34843;48.744;8.958;2022-07-10T08:34:52;5.50;;;1.40;;
3201;SDS011;34843;48.744;8.958;2022-07-10T08:37:18;5.77;;;1.67;;
3201;SDS011;34843;48.744;8.958;2022-07-10T08:39:44;4.93;;;1.20;;
3201;SDS011;34843;48.744;8.958;2022-07-10T08:42:10;2.13;;;1.23;;
3201;SDS011;34843;48.744;8.958;2022-07-10T08:44:37;2.60;;;1.50;;
3201;SDS011;34843;48.744;8.958;2022-07-10T08:47:03;3.67;;;1.90;;
3201;SDS011;34843;48.744;8.958;2022-07-10T08:49:30;6.63;;;2.40;;
3201;SDS011;34843;48.744;8.958;2022-07-10T08:52:08;2.60;;;1.63;;
3201;SDS011;34843;48.744;8.958;2022-07-10T08:54:45;2.33;;;1.47;;
3201;SDS011;34843;48.744;8.958;2022-07-10T08:57:11;2.60;;;1.70;;
3201;SDS011;34843;48.744;8.958;2022-07-10T08:59:37;1.40;;;1.30;;
3201;SDS011;34843;48.744;8.958;2022-07-10T09:02:02;2.50;;;1.50;;
3201;SDS011;34843;48.744;8.958;2022-07-10T09:04:28;3.00;;;1.50;;
3201;SDS011;34843;48.744;8.958;2022-07-10T09:06:54;3.47;;;1.70;;
3201;SDS011;34843;48.744;8.958;2022-07-10T09:09:20;9.30;;;1.87;;
3201;SDS011;34843;48.744;8.958;2022-07-10T09:11:46;5.53;;;2.70;;
3201;SDS011;34843;48.744;8.958;2022-07-10T09:14:16;3.23;;;1.83;;
3201;SDS011;34843;48.744;8.958;2022-07-10T09:16:43;2.13;;;1.80;;
3201;SDS011;34843;48.744;8.958;2022-07-10T09:19:22;3.47;;;1.87;;
3201;SDS011;34843;48.744;8.958;2022-07-10T09:22:05;2.20;;;1.97;;
3201;SDS011;34843;48.744;8.958;2022-07-10T09:24:35;4.13;;;2.20;;
3201;SDS011;34843;48.744;8.958;2022-07-10T09:27:01;2.60;;;1.97;;
3201;SDS011;34843;48.744;8.958;2022-07-10T09:29:31;2.53;;;2.17;;
3201;SDS011;34843;48.744;8.958;2022-07-10T09:32:01;4.03;;;1.87;;
3201;SDS011;34843;48.744;8.958;2022-07-10T09:34:37;2.40;;;2.00;;
3201;SDS011;34843;48.744;8.958;2022-07-10T09:37:19;2.00;;;1.90;;
3201;SDS011;34843;48.744;8.958;2022-07-10T09:42:34;4.10;;;2.13;;
3201;SDS011;34843;48.744;8.958;2022-07-10T09:47:36;3.50;;;2.00;;
3201;SDS011;34843;48.744;8.958;2022-07-10T09:50:03;5.57;;;2.13;;
3201;SDS011;34843;48.744;8.958;2022-07-10T09:52:29;3.17;;;2.03;;
3201;SDS011;34843;48.744;8.958;2022-07-10T09:54:57;2.00;;;1.80;;
3201;SDS011;34843;48.744;8.958;2022-07-10T09:57:26;3.67;;;2.03;;
3201;SDS011;34843;48.744;8.958;2022-07-10T09:59:55;5.43;;;1.90;;
3201;SDS011;34843;48.744;8.958;2022-07-10T10:02:21;5.10;;;1.93;;
3201;SDS011;34843;48.744;8.958;2022-07-10T10:04:48;3.23;;;2.10;;
3201;SDS011;34843;48.744;8.958;2022-07-10T10:07:14;3.77;;;2.10;;
3201;SDS011;34843;48.744;8.958;2022-07-10T10:09:45;2.20;;;2.00;;
3201;SDS011;34843;48.744;8.958;2022-07-10T10:12:35;3.10;;;2.27;;
3201;SDS011;34843;48.744;8.958;2022-07-10T10:15:10;4.43;;;1.60;;
3201;SDS011;34843;48.744;8.958;2022-07-10T10:17:36;3.17;;;1.73;;
3201;SDS011;34843;48.744;8.958;2022-07-10T10:20:05;2.50;;;2.07;;
3201;SDS011;34843;48.744;8.958;2022-07-10T10:22:50;3.43;;;1.97;;
3201;SDS011;34843;48.744;8.958;2022-07-10T10:25:20;2.30;;;2.10;;
3201;SDS011;34843;48.744;8.958;2022-07-10T10:27:48;3.57;;;1.50;;
3201;SDS011;34843;48.744;8.958;2022-07-10T10:30:15;5.70;;;2.37;;
3201;SDS011;34843;48.744;8.958;2022-07-10T10:32:40;5.93;;;3.10;;
3201;SDS011;34843;48.744;8.958;2022-07-10T10:35:06;1.90;;;1.77;;
3201;SDS011;34843;48.744;8.958;2022-07-10T10:37:38;3.17;;;2.00;;
3201;SDS011;34843;48.744;8.958;2022-07-10T10:40:10;2.90;;;2.70;;
3201;SDS011;34843;48.744;8.958;2022-07-10T10:42:54;2.20;;;2.07;;
3201;SDS011;34843;48.744;8.958;2022-07-10T10:58:39;2.87;;;1.70;;
3201;SDS011;34843;48.744;8.958;2022-07-10T11:09:21;2.73;;;1.90;;
3201;SDS011;34843;48.744;8.958;2022-07-10T11:11:59;3.73;;;2.00;;
3201;SDS011;34843;48.744;8.958;2022-07-10T11:14:26;1.73;;;1.63;;
3201;SDS011;34843;48.744;8.958;2022-07-10T11:16:56;1.80;;;1.37;;
3201;SDS011;34843;48.744;8.958;2022-07-10T11:19:26;2.30;;;1.20;;
3201;SDS011;34843;48.744;8.958;2022-07-10T11:27:56;4.80;;;1.67;;
3201;SDS011;34843;48.744;8.958;2022-07-10T11:30:46;2.13;;;1.80;;
3201;SDS011;34843;48.744;8.958;2022-07-10T11:33:11;4.17;;;1.40;;
3201;SDS011;34843;48.744;8.958;2022-07-10T11:35:38;3.20;;;1.90;;
3201;SDS011;34843;48.744;8.958;2022-07-10T11:38:05;4.03;;;1.30;;
3201;SDS011;34843;48.744;8.958;2022-07-10T11:40:30;2.67;;;1.90;;
3201;SDS011;34843;48.744;8.958;2022-07-10T11:43:00;5.47;;;1.63;;
3201;SDS011;34843;48.744;8.958;2022-07-10T11:45:30;5.03;;;1.83;;
3201;SDS011;34843;48.744;8.958;2022-07-10T11:47:58;3.87;;;1.37;;
3201;SDS011;34843;48.744;8.958;2022-07-10T11:50:24;1.70;;;1.60;;
3201;SDS011;34843;48.744;8.958;2022-07-10T11:52:51;1.30;;;1.20;;
3201;SDS011;34843;48.744;8.958;2022-07-10T11:55:19;3.87;;;1.20;;
3201;SDS011;34843;48.744;8.958;2022-07-10T11:57:51;1.60;;;1.27;;
3201;SDS011;34843;48.744;8.958;2022-07-10T12:00:21;1.27;;;0.90;;
3201;SDS011;34843;48.744;8.958;2022-07-10T12:02:48;2.23;;;1.57;;
3201;SDS011;34843;48.744;8.958;2022-07-10T12:05:34;2.77;;;1.00;;
3201;SDS011;34843;48.744;8.958;2022-07-10T12:07:59;3.77;;;1.03;;
3201;SDS011;34843;48.744;8.958;2022-07-10T12:10:26;2.27;;;1.37;;
3201;SDS011;34843;48.744;8.958;2022-07-10T12:12:52;3.43;;;1.17;;
3201;SDS011;34843;48.744;8.958;2022-07-10T12:15:34;1.13;;;1.03;;
3201;SDS011;34843;48.744;8.958;2022-07-10T12:18:02;1.10;;;0.90;;
3201;SDS011;34843;48.744;8.958;2022-07-10T12:20:32;11.40;;;1.63;;
3201;SDS011;34843;48.744;8.958;2022-07-10T12:22:59;2.97;;;1.53;;
3201;SDS011;34843;48.744;8.958;2022-07-10T12:25:25;2.20;;;1.07;;
3201;SDS011;34843;48.744;8.958;2022-07-10T12:27:57;1.90;;;0.87;;
3201;SDS011;34843;48.744;8.958;2022-07-10T12:30:24;1.30;;;0.90;;
3201;SDS011;34843;48.744;8.958;2022-07-10T12:33:07;1.00;;;0.90;;
3201;SDS011;34843;48.744;8.958;2022-07-10T12:35:44;3.13;;;1.10;;
3201;SDS011;34843;48.744;8.958;2022-07-10T12:38:19;2.40;;;1.00;;
3201;SDS011;34843;48.744;8.958;2022-07-10T12:43:34;1.00;;;0.90;;
3201;SDS011;34843;48.744;8.958;2022-07-10T12:46:15;1.50;;;1.20;;
3201;SDS011;34843;48.744;8.958;2022-07-10T12:49:00;1.53;;;0.80;;
3201;SDS011;34843;48.744;8.958;2022-07-10T12:51:30;1.10;;;1.00;;
3201;SDS011;34843;48.744;8.958;2022-07-10T12:54:07;2.00;;;0.90;;
3201;SDS011;34843;48.744;8.958;2022-07-10T12:56:33;1.17;;;0.87;;
3201;SDS011;34843;48.744;8.958;2022-07-10T12:59:00;1.10;;;0.70;;
3201;SDS011;34843;48.744;8.958;2022-07-10T13:01:28;1.00;;;0.87;;
3201;SDS011;34843;48.744;8.958;2022-07-10T13:04:03;3.33;;;1.07;;
3201;SDS011;34843;48.744;8.958;2022-07-10T13:06:31;1.10;;;1.00;;
3201;SDS011;34843;48.744;8.958;2022-07-10T13:08:58;1.10;;;0.70;;
3201;SDS011;34843;48.744;8.958;2022-07-10T13:11:24;0.73;;;0.70;;
3201;SDS011;34843;48.744;8.958;2022-07-10T13:13:50;1.20;;;0.90;;
3201;SDS011;34843;48.744;8.958;2022-07-10T13:16:16;1.97;;;1.10;;
3201;SDS011;34843;48.744;8.958;2022-07-10T13:18:42;1.47;;;0.70;;
3201;SDS011;34843;48.744;8.958;2022-07-10T13:21:08;2.13;;;0.90;;
3201;SDS011;34843;48.744;8.958;2022-07-10T13:23:35;3.60;;;1.30;;
3201;SDS011;34843;48.744;8.958;2022-07-10T13:26:02;6.27;;;0.90;;
3201;SDS011;34843;48.744;8.958;2022-07-10T13:28:28;1.00;;;0.80;;
3201;SDS011;34843;48.744;8.958;2022-07-10T13:30:54;3.93;;;1.10;;
3201;SDS011;34843;48.744;8.958;2022-07-10T13:33:20;1.57;;;0.63;;
3201;SDS011;34843;48.744;8.958;2022-07-10T13:35:45;2.30;;;0.80;;
3201;SDS011;34843;48.744;8.958;2022-07-10T13:38:12;1.10;;;0.80;;
3201;SDS011;34843;48.744;8.958;2022-07-10T13:40:38;0.90;;;0.77;;
3201;SDS011;34843;48.744;8.958;2022-07-10T13:43:04;1.70;;;0.90;;
3201;SDS011;34843;48.744;8.958;2022-07-10T13:45:31;1.07;;;0.70;;
3201;SDS011;34843;48.744;8.958;2022-07-10T13:48:08;2.90;;;0.90;;
3201;SDS011;34843;48.744;8.958;2022-07-10T13:50:34;4.30;;;0.83;;
3201;SDS011;34843;48.744;8.958;2022-07-10T13:53:01;1.90;;;0.60;;
3201;SDS011;34843;48.744;8.958;2022-07-10T13:55:28;3.03;;;0.70;;
3201;SDS011;34843;48.744;8.958;2022-07-10T13:57:53;1.13;;;1.03;;
3201;SDS011;34843;48.744;8.958;2022-07-10T14:00:19;2.63;;;0.87;;
3201;SDS011;34843;48.744;8.958;2022-07-10T14:02:44;2.27;;;1.10;;
3201;SDS011;34843;48.744;8.958;2022-07-10T14:05:10;1.00;;;0.90;;
3201;SDS011;34843;48.744;8.958;2022-07-10T14:07:36;2.00;;;0.73;;
3201;SDS011;34843;48.744;8.958;2022-07-10T14:10:02;1.50;;;0.77;;
3201;SDS011;34843;48.744;8.958;2022-07-10T14:12:28;4.23;;;0.90;;
3201;SDS011;34843;48.744;8.958;2022-07-10T14:14:54;1.00;;;0.70;;
3201;SDS011;34843;48.744;8.958;2022-07-10T14:17:20;2.90;;;0.80;;
3201;SDS011;34843;48.744;8.958;2022-07-10T14:19:45;2.40;;;0.90;;
3201;SDS011;34843;48.744;8.958;2022-07-10T14:22:11;1.63;;;0.80;;
3201;SDS011;34843;48.744;8.958;2022-07-10T14:24:37;7.27;;;0.93;;
3201;SDS011;34843;48.744;8.958;2022-07-10T14:27:02;4.27;;;1.00;;
3201;SDS011;34843;48.744;8.958;2022-07-10T14:29:28;1.57;;;0.80;;
3201;SDS011;34843;48.744;8.958;2022-07-10T14:31:54;2.10;;;0.87;;
3201;SDS011;34843;48.744;8.958;2022-07-10T14:34:19;2.40;;;1.00;;
3201;SDS011;34843;48.744;8.958;2022-07-10T14:36:45;3.23;;;1.70;;
3201;SDS011;34843;48.744;8.958;2022-07-10T14:39:11;1.77;;;1.07;;
3201;SDS011;34843;48.744;8.958;2022-07-10T14:41:39;5.43;;;3.37;;
3201;SDS011;34843;48.744;8.958;2022-07-10T14:44:05;1.00;;;0.93;;
3201;SDS011;34843;48.744;8.958;2022-07-10T14:46:31;1.33;;;0.93;;
3201;SDS011;34843;48.744;8.958;2022-07-10T14:48:57;2.20;;;0.97;;
3201;SDS011;34843;48.744;8.958;2022-07-10T14:51:23;2.27;;;1.00;;
3201;SDS011;34843;48.744;8.958;2022-07-10T14:53:48;1.57;;;0.90;;
3201;SDS011;34843;48.744;8.958;2022-07-10T14:56:14;1.17;;;0.80;;
3201;SDS011;34843;48.744;8.958;2022-07-10T14:58:44;1.63;;;1.07;;
3201;SDS011;34843;48.744;8.958;2022-07-10T15:01:13;2.20;;;0.90;;
3201;SDS011;34843;48.744;8.958;2022-07-10T15:03:39;1.80;;;0.83;;
3201;SDS011;34843;48.744;8.958;2022-07-10T15:06:05;1.40;;;0.70;;
3201;SDS011;34843;48.744;8.958;2022-07-10T15:08:31;1.30;;;0.80;;
3201;SDS011;34843;48.744;8.958;2022-07-10T15:10:56;0.70;;;0.70;;
3201;SDS011;34843;48.744;8.958;2022-07-10T15:13:28;1.20;;;0.90;;
3201;SDS011;34843;48.744;8.958;2022-07-10T15:15:54;4.20;;;1.00;;
3201;SDS011;34843;48.744;8.958;2022-07-10T15:18:19;2.73;;;0.93;;
3201;SDS011;34843;48.744;8.958;2022-07-10T15:20:46;0.90;;;0.77;;
3201;SDS011;34843;48.744;8.958;2022-07-10T15:23:12;0.90;;;0.70;;
3201;SDS011;34843;48.744;8.958;2022-07-10T15:25:37;0.70;;;0.60;;
3201;SDS011;34843;48.744;8.958;2022-07-10T15:28:07;2.00;;;0.80;;
3201;SDS011;34843;48.744;8.958;2022-07-10T15:30:34;7.60;;;3.20;;
3201;SDS011;34843;48.744;8.958;2022-07-10T15:33:01;2.43;;;1.23;;